Hobart Airport
YMHB : now visible

Airfield :











YOU CAN JOIN US ON...

 
LOGIN :

Register | Disclaimer

   EN    FR    IT 

 









Legend :    VFR   Marginal VFR   IFR   Intensive IFR   Very Intensive IFR
Visi :
Ceiling :
>= 8 km
>= 3000ft
5 to 8 km
1000 to 3000 ft
1500m to 5 km
500 to 1000 ft
800 to 1500m
200 to 500 ft
< 800m
< 200 ft
Symbols :   Thunderstorms  Fog  Heavy snow  Heavy precipitations  Wind > 20 kt






- Airport Elevation : 13 ft
- IATA code : HBA


YMHB - Hobart

CURRENT METAR :
  • 171200Z 29008KT 9999 FEW038 BKN180 16/07 Q1006 RF00.0/000.0

EXPIRED METARs :
  • 171130Z 28011KT 9999 FEW038 16/07 Q1006
  • 171100Z 26013KT 9999 SCT038 16/07 Q1006
  • 171030Z 26013KT 9999 FEW038 16/07 Q1006
  • 171000Z 26012KT 9999 FEW042 SCT235 17/07 Q1006
  • 170930Z 26013KT 9999 FEW030 SCT045 18/06 Q1005 RF00.0/000.0

TAF TAF YMHB
Valid from the 17 at 12:00 until the 18 at 12:00 UTC


171105Z 1712/1812 26012KT 9999 SCT035
FM171500 30010KT 9999 BKN035
FM172300 29020G30KT 9999 BKN040
FM180500 23030G45KT 9999 FEW050
FM180900 24020G32KT 9999 SCT040
YMMM FIR / Oceania



MET'MAP, your aeronautical weather chart ! - Copyright ORBIFLY December 2007 - Disclaimer

ORBIFLY MET'MAP TEAM :

Programming & Development : Alexandra Zaïnal
Concept & original design : Baudouin d'Aumeries
Assistance for programming : Marc-Olivier Méhu
Technical & hardware support : Manuel Goepfert

Contact : metmap@orbifly.com




SOURCES & CREDITS :

   NOAA       Earth
Advisory